• Join FlightAware (Why Join?)
  • Login
  • US Flag 
Gobble Gobble! 
08:58PM EST


 

Airport Tracker/Info


-or-


 

Live Flight TrackerFlight Track Log ✈ AKX1696 ✈ 20-Sep-2013 ✈ RJSF / FKS - RJOO / ITM

Flight Track Log - Related Links

Times and Time Zones

All times are in EDT time to prevent confusion due to time zone crossing. See the AKX1696 flight status page for this flight to view local times or setup timezone preferences in your user account.

Time Position Orientation Groundspeed Altitude Reporting Facility
EDT Latitude Longitude Course Direction KTS MPH feet Rate Location/Type
03:42AM 37.1124 140.1781 240° Southwest  Level Estimated
03:43AM 37.0740 140.0941 240° Southwest  Level Estimated
03:44AM 37.0354 140.0102 240° Southwest  Level Estimated
03:45AM 36.9968 139.9263 240° Southwest  Level Estimated
03:46AM 36.9582 139.8426 240° Southwest  Level Estimated
03:47AM 36.9195 139.7589 240° Southwest  Level Estimated
03:48AM 36.8808 139.6753 240° Southwest  Level Estimated
03:49AM 36.8420 139.5918 240° Southwest  Level Estimated
03:50AM 36.8031 139.5084 240° Southwest  Level Estimated
03:51AM 36.7642 139.4251 240° Southwest  Level Estimated
03:52AM 36.7252 139.3418 240° Southwest  Level Estimated
03:53AM 36.6861 139.2586 240° Southwest  Level Estimated
03:54AM 36.6470 139.1756 240° Southwest  Level Estimated
03:55AM 36.6079 139.0926 240° Southwest  Level Estimated
03:56AM 36.5687 139.0096 240° Southwest  Level Estimated
03:57AM 36.5294 138.9268 239° Southwest  Level Estimated
03:58AM 36.4901 138.8441 239° Southwest  Level Estimated
03:59AM 36.4507 138.7614 239° Southwest  Level Estimated
04:00AM 36.4112 138.6788 239° Southwest  Level Estimated
04:01AM 36.3717 138.5963 239° Southwest  Level Estimated
04:02AM 36.3322 138.5139 239° Southwest  Level Estimated
04:03AM 36.2926 138.4316 239° Southwest  Level Estimated
04:04AM 36.2529 138.3494 239° Southwest  Level Estimated
04:05AM 36.2132 138.2672 239° Southwest  Level Estimated
04:06AM 36.1734 138.1851 239° Southwest  Level Estimated
04:07AM 36.1335 138.1031 239° Southwest  Level Estimated
04:08AM 36.0937 138.0212 239° Southwest  Level Estimated
04:09AM 36.0537 137.9394 239° Southwest  Level Estimated
04:10AM 36.0137 137.8577 239° Southwest  Level Estimated
04:11AM 35.9736 137.7760 239° Southwest  Level Estimated
04:12AM 35.9335 137.6944 239° Southwest  Level Estimated
04:13AM 35.8933 137.6129 239° Southwest  Level Estimated
04:14AM 35.8531 137.5315 239° Southwest  Level Estimated
04:15AM 35.8128 137.4502 239° Southwest  Level Estimated
04:16AM 35.7725 137.3690 239° Southwest  Level Estimated
04:17AM 35.7321 137.2878 239° Southwest  Level Estimated
04:18AM 35.6917 137.2067 238° Southwest  Level Estimated
04:19AM 35.6511 137.1257 238° Southwest  Level Estimated
04:20AM 35.6106 137.0448 238° Southwest  Level Estimated
04:21AM 35.5700 136.9640 238° Southwest  Level Estimated
04:22AM 35.5293 136.8832 238° Southwest  Level Estimated
04:23AM 35.4886 136.8026 238° Southwest  Level Estimated
04:24AM 35.4478 136.7220 238° Southwest  Level Estimated
04:25AM 35.4070 136.6415 238° Southwest  Level Estimated
04:26AM 35.3661 136.5610 238° Southwest  Level Estimated
04:27AM 35.3252 136.4807 238° Southwest  Level Estimated
04:28AM 35.2842 136.4004 238° Southwest  Level Estimated
04:29AM 35.2432 136.3203 238° Southwest  Level Estimated
04:30AM 35.2021 136.2401 238° Southwest  Level Estimated
04:31AM 35.1610 136.1601 238° Southwest  Level Estimated
04:32AM 35.1198 136.0802 238° Southwest  Level Estimated
04:33AM 35.0785 136.0003 238° Southwest  Level Estimated
04:34AM 35.0372 135.9205 238° Southwest  Level Estimated
04:35AM 34.9959 135.8409 238° Southwest  Level Estimated
04:36AM 34.9545 135.7612 238° Southwest  Level Estimated
04:37AM 34.9130 135.6817 238° Southwest  Level Estimated
04:38AM 34.8715 135.6022 238° Southwest  Level Estimated
04:39AM 34.8299 135.5229 237° Southwest  Level Estimated
04:40AM 34.7883 135.4436 237° Southwest  Level Estimated
04:41AM 34.7855 135.4382 237° Southwest  Level Estimated
04:42AM 34.7855 135.4382 141° Southeast  Level Estimated
04:43AM 34.7855 135.4382 141° Southeast  Level Estimated
04:44AM 34.7855 135.4382 141° Southeast  Level Estimated
04:45AM 34.7855 135.4382 141° Southeast  Level Estimated
04:46AM 34.7855 135.4382 141° Southeast  Level Estimated
04:47AM 34.7855 135.4382 141° Southeast  Level Estimated
04:48AM 34.7855 135.4382 141° Southeast  Level Estimated